• Join FlightAware (Why Join?)
  • Login
  • US Flag 
07:56PM EDT


 

Airport Tracker/Info


-or-


 

Live Flight TrackerFlight Track Log ✈ N386JC ✈ 05-Jun-2014 ✈ KCAK - KJAN

Flight Track Log - Related Links

Times and Time Zones

All times are in EDT time to prevent confusion due to time zone crossing. See the N386JC flight status page for this flight to view local times or setup timezone preferences in your user account.

Time Position Orientation Groundspeed Altitude Reporting Facility
EDT Latitude Longitude Course Direction KTS MPH feet Rate Location/Type
01:27PM 40.9456 -81.4311 180° South 181 208 3,100  Level Indianapolis Center
01:28PM 40.9303 -81.3572 105° East 242 278 5,800 2,220 Climbing Indianapolis Center
01:29PM 40.8578 -81.3183 158° South 279 321 7,800 2,760 Climbing Indianapolis Center
01:30PM 40.7878 -81.3769 212° Southwest 293 337 11,600 3,720 Climbing Indianapolis Center
01:32PM 40.7108 -81.4453 214° Southwest 333 383 15,600 3,300 Climbing Indianapolis Center
01:33PM 40.3715 -81.5833 180° South  Level FlightAware Approximate
01:36PM 40.3204 -81.6272 200° South 439 505 29,300  Level FlightAware ADS-B (KPMH)
01:38PM 39.9949 -81.7635 192° South 497 572 35,300 1,440 Climbing FlightAware ADS-B (KPMH)
01:40PM 39.6497 -81.8622 194° South 480 552 36,200 600 Climbing FlightAware ADS-B (KPMH)
01:43PM 39.3669 -81.9554 195° South 479 551 38,300 1,140 Climbing FlightAware ADS-B (KPMH)
01:43PM 39.2948 -81.9793 194° South 472 543 39,300 1,800 Climbing FlightAware ADS-B (KPMH)
01:44PM 39.2253 -82.0024 194° South 465 535 40,500 1,680 Climbing FlightAware ADS-B (KPMH)
01:45PM 39.1081 -82.0529 200° South 450 518 41,900 1,200 Climbing FlightAware ADS-B (KPMH)
01:46PM 38.9756 -82.1147 200° South 446 513 43,000 600 Climbing FlightAware ADS-B (KPMH)
01:46PM 38.9125 -82.1441 200° South 458 527 43,000  Level FlightAware ADS-B (KPMH)
01:47PM 38.8247 -82.1849 200° South 459 528 43,000  Level FlightAware ADS-B (KPMH)
01:48PM 38.7269 -82.2294 200° South 458 527 43,000  Level Cleveland Center
01:49PM 38.5969 -82.2917 201° Southwest 456 525 43,000  Level Indianapolis Center
01:50PM 38.4778 -82.3456 199° South 456 525 43,000  Level Indianapolis Center
01:51PM 38.3581 -82.4006 200° South 456 525 43,000  Level Indianapolis Center
01:52PM 38.2378 -82.4567 200° South 457 526 43,000  Level Indianapolis Center
01:53PM 38.0967 -82.5194 199° South 458 527 43,000  Level Indianapolis Center
01:54PM 37.9739 -82.5761 200° South 462 532 43,000  Level Indianapolis Center
01:55PM 37.8514 -82.6325 200° South 464 534 43,000  Level Indianapolis Center
01:56PM 37.7283 -82.6872 199° South 465 535 43,000  Level Indianapolis Center
01:57PM 37.6050 -82.7433 200° South 466 536 43,000  Level Indianapolis Center
01:58PM 37.4806 -82.7989 200° South 470 541 43,000  Level Indianapolis Center
01:59PM 37.3547 -82.8933 211° Southwest 455 524 43,000  Level Indianapolis Center
02:00PM 37.2592 -82.9889 219° Southwest 446 513 43,000  Level Indianapolis Center
02:01PM 37.1614 -83.0842 218° Southwest 445 512 43,000  Level Indianapolis Center
02:03PM 37.0647 -83.1783 218° Southwest 445 512 43,000  Level Indianapolis Center
02:04PM 36.9672 -83.2725 218° Southwest 445 512 43,000  Level Indianapolis Center
02:05PM 36.8528 -83.3819 217° Southwest 445 512 43,000  Level Indianapolis Center
02:06PM 36.7542 -83.4767 218° Southwest 446 513 43,000  Level Indianapolis Center
02:07PM 36.6556 -83.5711 218° Southwest 446 513 43,000  Level Indianapolis Center
02:08PM 36.5561 -83.6664 218° Southwest 448 516 43,000  Level Indianapolis Center
02:09PM 36.4406 -83.7764 217° Southwest 452 520 43,000  Level Indianapolis Center
02:10PM 36.3386 -83.8731 217° Southwest 455 524 43,000  Level Indianapolis Center
02:11PM 36.2353 -83.9714 218° Southwest 461 531 43,000  Level Indianapolis Center
02:12PM 36.1317 -84.0681 217° Southwest 462 532 43,000  Level Indianapolis Center
02:13PM 36.0289 -84.1644 217° Southwest 464 534 43,000  Level Atlanta Center
02:14PM 35.9267 -84.2619 218° Southwest 464 534 43,000  Level Atlanta Center
02:19PM 35.3134 -84.8312 217° Southwest 468 539 43,000  Level FlightAware ADS-B (KDZJ)
02:20PM 35.2397 -84.8986 217° Southwest 467 537 43,000  Level FlightAware ADS-B (KDZJ)
02:21PM 35.1709 -84.9616 217° Southwest 463 533 43,000  Level FlightAware ADS-B (KDZJ)
02:21PM 35.1016 -85.0250 217° Southwest 461 531 43,000  Level FlightAware ADS-B (KDZJ)
02:22PM 35.0330 -85.0876 218° Southwest 450 518 43,000  Level FlightAware ADS-B (KDZJ)
02:23PM 34.9675 -85.1503 224° Southwest 442 509 43,000  Level FlightAware ADS-B (KDZJ)
02:23PM 34.9158 -85.2215 231° Southwest 434 499 43,000  Level FlightAware ADS-B (KDZJ)
02:24PM 34.8722 -85.2857 231° Southwest 438 504 43,000  Level FlightAware ADS-B (KDZJ)
02:29PM 35.1155 -85.0123 230° Southwest 443 510 43,000  Level FlightAware ADS-B (KMDQ)
02:30PM 34.4522 -85.9003 230° Southwest 440 506 43,000 -60 Level Atlanta Center
02:36PM 33.9976 -86.5586 230° Southwest 444 511 42,800 -180 Descending FlightAware ADS-B (KMDQ)
02:36PM 33.9371 -86.6451 230° Southwest 435 501 42,000 -1,500 Descending FlightAware ADS-B (KMDQ)
02:37PM 33.8806 -86.7260 230° Southwest 424 488 40,900 -1,560 Descending FlightAware ADS-B (KMDQ)
02:40PM 33.6764 -87.0152 230° Southwest 451 519 36,900 -1,500 Descending FlightAware ADS-B (KMDQ)
02:40PM 33.6170 -87.0988 230° Southwest 450 518 35,900 -1,500 Descending FlightAware ADS-B (KMDQ)
02:41PM 33.5615 -87.1771 230° Southwest 456 525 34,900 -1,380 Descending FlightAware ADS-B (KMDQ)
02:41PM 33.5239 -87.2286 230° Southwest 449 517 34,200 -1,440 Descending Memphis Center
02:42PM 33.4386 -87.3481 229° Southwest 464 534 32,700 -1,500 Descending Memphis Center
02:43PM 33.3514 -87.4692 229° Southwest 474 545 31,200 -1,080 Descending Memphis Center
02:45PM 33.2669 -87.5886 230° Southwest 474 545 30,500 -600 Descending Memphis Center
02:46PM 33.1819 -87.7056 229° Southwest 470 541 30,000 -300 Descending Memphis Center
02:47PM 33.0989 -87.8228 230° Southwest 464 534 30,000  Level Memphis Center
02:48PM 32.9956 -87.9619 229° Southwest 465 535 30,000 -300 Level Memphis Center
02:49PM 32.9183 -88.0700 230° Southwest 465 535 29,400 -1,200 Descending Memphis Center
02:50PM 32.8344 -88.1836 229° Southwest 464 534 27,600 -2,040 Descending Memphis Center
02:51PM 32.7394 -88.3133 229° Southwest 440 506 25,200 -2,100 Descending Memphis Center
02:52PM 32.6600 -88.4233 229° Southwest 437 503 23,300 -1,980 Descending Memphis Center
02:53PM 32.5814 -88.5300 229° Southwest 436 502 21,200 -1,980 Descending Memphis Center
02:54PM 32.5047 -88.6331 229° Southwest 427 491 19,300 -1,980 Descending Memphis Center
02:55PM 32.4306 -88.7336 229° Southwest 413 475 17,200 -2,040 Descending Memphis Center
02:56PM 32.3772 -88.8383 239° Southwest 396 456 15,200 -1,800 Descending Memphis Center
02:57PM 32.3703 -88.9800 267° West 371 427 13,500 -1,080 Descending Memphis Center
02:58PM 32.3642 -89.0958 266° West 361 415 13,000 -300 Descending Memphis Center
02:59PM 32.3578 -89.2114 266° West 358 412 13,000 -180 Level Memphis Center
03:00PM 32.3522 -89.3181 267° West 345 397 12,700 -900 Descending Memphis Center
03:01PM 32.3472 -89.4208 267° West 329 379 11,200 -840 Descending Memphis Center
03:02PM 32.3419 -89.5150 266° West 312 359 11,000 -420 Descending Memphis Center
03:03PM 32.3358 -89.6183 266° West 286 329 10,400 -1,320 Descending Memphis Center
03:04PM 32.3319 -89.7042 267° West 272 313 8,400 -1,740 Descending Memphis Center
03:05PM 32.3297 -89.7469 266° West 258 297 7,800 -1,680 Descending Memphis Center
03:05PM 32.3272 -89.7883 266° West 266 306 6,700 -2,160 Descending Memphis Center
03:06PM 32.3219 -89.8747 266° West 265 305 4,400 -1,560 Descending Memphis Center
03:07PM 32.3325 -89.9589 278° West 260 299 3,500 -1,200 Descending Memphis Center
03:08PM 32.3739 -90.0147 311° West 260 299 2,000 -900 Descending Memphis Center
03:09PM 32.4144 -90.0422 330° Northwest 190 219 2,000 -120 Level Memphis Center
03:09PM 32.4103 -90.0567 251° West 201 231 1,900 -420 Descending Memphis Center
03:10PM 32.3900 -90.0967 239° Southwest 163 188 1,500 -480 Descending Memphis Center
03:11PM 32.3558 -90.0906 171° South 143 165 1,000 -540 Descending Memphis Center
03:12PM 32.3186 -90.0733 159° South 136 157 500 -540 Descending Memphis Center